createdAt,value
2022-12-05T00:01:42.486Z,5.20
2022-12-05T00:04:13.878Z,5.20
2022-12-05T00:06:42.345Z,5.20
2022-12-05T00:09:11.955Z,5.20
2022-12-05T00:11:42.710Z,5.20
2022-12-05T00:14:11.034Z,5.20
2022-12-05T00:16:41.021Z,5.20
2022-12-05T00:19:10.811Z,5.20
2022-12-05T00:21:37.935Z,5.20
2022-12-05T00:24:08.721Z,5.20
2022-12-05T00:26:36.067Z,5.20
2022-12-05T00:29:03.349Z,5.20
2022-12-05T00:31:30.431Z,5.20
2022-12-05T00:34:01.660Z,5.10
2022-12-05T00:36:32.256Z,5.20
2022-12-05T00:39:01.769Z,5.20
2022-12-05T00:41:30.146Z,5.20
2022-12-05T00:44:00.145Z,5.20
2022-12-05T00:46:30.461Z,5.20
2022-12-05T00:49:00.125Z,5.20
2022-12-05T00:51:35.091Z,5.20
2022-12-05T00:54:05.989Z,5.20
2022-12-05T00:56:34.047Z,5.10
2022-12-05T00:59:03.620Z,5.10
2022-12-05T01:01:38.307Z,5.20
2022-12-05T01:04:11.247Z,5.10
2022-12-05T01:06:39.005Z,5.10
2022-12-05T01:09:06.637Z,5.20
2022-12-05T01:11:40.719Z,5.20
2022-12-05T01:14:13.019Z,5.20
2022-12-05T01:16:43.015Z,5.10
2022-12-05T01:19:17.953Z,5.10
2022-12-05T01:21:44.999Z,5.10
2022-12-05T01:24:12.392Z,5.20
2022-12-05T01:26:41.749Z,5.20
2022-12-05T01:29:08.630Z,5.10
2022-12-05T01:31:37.379Z,5.10
2022-12-05T01:34:08.545Z,5.10
2022-12-05T01:36:35.593Z,5.10
2022-12-05T01:39:03.483Z,5.10
2022-12-05T01:41:35.871Z,5.10
2022-12-05T01:44:11.101Z,5.10
2022-12-05T01:46:44.903Z,5.10
2022-12-05T01:49:16.033Z,5.10
2022-12-05T01:51:50.022Z,5.10
2022-12-05T01:54:19.470Z,5.10
2022-12-05T01:57:00.948Z,5.10
2022-12-05T01:59:32.508Z,5.10
2022-12-05T02:01:59.703Z,5.10
2022-12-05T02:04:27.641Z,5.10
2022-12-05T02:06:55.035Z,5.10
2022-12-05T02:09:23.485Z,5.10
2022-12-05T02:11:55.480Z,5.10
2022-12-05T02:15:17.808Z,5.00
2022-12-05T02:18:17.055Z,5.00
2022-12-05T02:21:13.591Z,5.00
2022-12-05T02:24:27.879Z,5.00
2022-12-05T02:27:58.716Z,5.00
2022-12-05T02:30:30.260Z,5.00
2022-12-05T02:33:07.073Z,5.00
2022-12-05T02:36:05.327Z,5.00
2022-12-05T02:38:46.365Z,5.00
2022-12-05T02:41:35.194Z,4.90
2022-12-05T02:44:21.336Z,4.90
2022-12-05T02:46:52.264Z,4.90
2022-12-05T02:49:30.123Z,4.90
2022-12-05T02:52:00.691Z,4.90
2022-12-05T02:54:49.485Z,4.90
2022-12-05T02:57:18.539Z,4.80
2022-12-05T02:59:45.218Z,4.80
2022-12-05T03:02:31.317Z,4.80
2022-12-05T03:05:17.364Z,4.80
2022-12-05T03:07:49.003Z,4.80
2022-12-05T03:10:23.204Z,4.80
2022-12-05T03:12:56.797Z,4.80
2022-12-05T03:15:33.871Z,4.80
2022-12-05T03:18:16.714Z,4.80
2022-12-05T03:20:49.903Z,4.70
2022-12-05T03:23:30.667Z,4.70
2022-12-05T03:26:44.281Z,4.70
2022-12-05T03:29:53.309Z,4.70
2022-12-05T03:32:33.396Z,4.70
2022-12-05T03:35:36.922Z,4.60
2022-12-05T03:38:27.880Z,4.60
2022-12-05T03:41:35.168Z,4.60
2022-12-05T03:44:14.442Z,4.60
2022-12-05T03:46:50.408Z,4.50
2022-12-05T03:49:38.017Z,4.50
2022-12-05T03:52:28.848Z,4.50
2022-12-05T03:55:03.268Z,4.50
2022-12-05T03:57:46.893Z,4.50
2022-12-05T04:00:23.881Z,4.40
2022-12-05T04:03:21.017Z,4.40
2022-12-05T04:06:01.291Z,4.40
2022-12-05T04:08:47.166Z,4.40
2022-12-05T04:11:19.900Z,4.40
2022-12-05T04:14:14.924Z,4.40
2022-12-05T04:17:03.194Z,4.30
2022-12-05T04:20:05.300Z,4.30
2022-12-05T04:22:34.592Z,4.30
2022-12-05T04:25:24.004Z,4.30
2022-12-05T04:28:21.644Z,4.30
2022-12-05T04:31:06.260Z,4.20
2022-12-05T04:33:56.077Z,4.20
2022-12-05T04:36:41.938Z,4.20
2022-12-05T04:39:23.443Z,4.10
2022-12-05T04:41:57.760Z,4.10
2022-12-05T04:44:32.440Z,4.10
2022-12-05T04:47:04.669Z,4.10
2022-12-05T04:49:34.807Z,4.00
2022-12-05T04:52:08.882Z,4.00
2022-12-05T04:54:43.678Z,4.00
2022-12-05T04:57:24.451Z,4.00
2022-12-05T04:59:51.613Z,3.90
2022-12-05T05:02:31.083Z,3.90
2022-12-05T05:05:01.208Z,3.90
2022-12-05T05:07:28.315Z,3.90
2022-12-05T05:09:57.249Z,3.80
2022-12-05T05:12:24.294Z,3.80
2022-12-05T05:14:50.988Z,3.80
2022-12-05T05:17:17.668Z,3.80
2022-12-05T05:19:44.396Z,3.90
2022-12-05T05:22:11.081Z,3.90
2022-12-05T05:24:37.757Z,3.80
2022-12-05T05:27:04.468Z,3.80
2022-12-05T05:29:31.168Z,3.80
2022-12-05T05:31:57.896Z,3.80
2022-12-05T05:34:26.539Z,3.80
2022-12-05T05:36:53.315Z,3.80
2022-12-05T05:39:20.056Z,3.80
2022-12-05T05:41:46.773Z,3.80
2022-12-05T05:44:13.493Z,3.80
2022-12-05T05:46:40.365Z,3.80
2022-12-05T05:49:07.107Z,3.80
2022-12-05T05:51:33.895Z,3.80
2022-12-05T05:54:00.889Z,3.80
2022-12-05T05:56:28.600Z,3.80
2022-12-05T05:59:05.777Z,3.80
2022-12-05T06:01:32.500Z,3.80
2022-12-05T06:03:59.857Z,3.80
2022-12-05T06:06:27.227Z,3.80
2022-12-05T06:08:54.909Z,3.80
2022-12-05T06:11:26.789Z,3.70
2022-12-05T06:14:02.322Z,3.70
2022-12-05T06:16:31.316Z,3.70
2022-12-05T06:18:58.810Z,3.60
2022-12-05T06:21:25.878Z,3.50
2022-12-05T06:23:53.796Z,3.50
2022-12-05T06:26:22.502Z,3.50
2022-12-05T06:28:49.804Z,3.50
2022-12-05T06:31:21.336Z,3.50
2022-12-05T06:33:48.875Z,3.50
2022-12-05T06:36:19.410Z,3.40
2022-12-05T06:38:46.233Z,3.40
2022-12-05T06:41:19.474Z,3.40
2022-12-05T06:43:46.547Z,3.30
2022-12-05T06:46:15.854Z,3.30
2022-12-05T06:48:42.711Z,3.30
2022-12-05T06:51:13.229Z,3.30
2022-12-05T06:53:40.457Z,3.30
2022-12-05T06:56:12.086Z,3.20
2022-12-05T06:58:38.994Z,3.20
2022-12-05T07:01:24.292Z,3.20
2022-12-05T07:03:51.398Z,3.20
2022-12-05T07:06:18.183Z,3.20
2022-12-05T07:08:51.082Z,3.20
2022-12-05T07:11:17.835Z,3.20
2022-12-05T07:13:44.548Z,3.20
2022-12-05T07:16:11.346Z,3.20
2022-12-05T07:18:39.317Z,3.20
2022-12-05T07:21:12.306Z,3.10
2022-12-05T07:23:41.905Z,3.20
2022-12-05T07:26:12.403Z,3.20
2022-12-05T07:28:39.130Z,3.20
2022-12-05T07:31:10.136Z,3.20
2022-12-05T07:33:37.852Z,3.10
2022-12-05T07:36:09.485Z,3.10
2022-12-05T07:38:36.677Z,3.10
2022-12-05T07:41:13.259Z,3.10
2022-12-05T07:43:41.837Z,3.10
2022-12-05T07:46:13.009Z,3.20
2022-12-05T07:48:40.787Z,3.20
2022-12-05T07:51:10.733Z,3.20
2022-12-05T07:53:39.155Z,3.20
2022-12-05T07:56:08.244Z,3.10
2022-12-05T07:58:36.462Z,3.10
2022-12-05T08:01:09.495Z,3.10
2022-12-05T08:03:37.380Z,3.10
2022-12-05T08:06:13.248Z,3.10
2022-12-05T08:08:40.224Z,3.10
2022-12-05T08:11:14.174Z,3.10
2022-12-05T08:13:42.236Z,3.10
2022-12-05T08:16:13.767Z,3.20
2022-12-05T08:18:41.887Z,3.20
2022-12-05T08:21:18.371Z,3.20
2022-12-05T08:23:46.653Z,3.20
2022-12-05T08:26:26.137Z,3.30
2022-12-05T08:28:59.990Z,3.30
2022-12-05T08:31:32.595Z,3.30
2022-12-05T08:34:00.689Z,3.40
2022-12-05T08:36:30.251Z,3.40
2022-12-05T08:38:59.560Z,3.40
2022-12-05T08:41:29.775Z,3.40
2022-12-05T08:43:59.452Z,3.40
2022-12-05T08:46:26.342Z,3.40
2022-12-05T08:48:53.098Z,3.40
2022-12-05T08:51:19.820Z,3.40
2022-12-05T08:53:46.719Z,3.40
2022-12-05T08:56:13.811Z,3.40
2022-12-05T08:58:41.179Z,3.40
2022-12-05T09:01:20.601Z,3.40
2022-12-05T09:03:48.417Z,3.40
2022-12-05T09:06:22.485Z,3.50
2022-12-05T09:08:54.613Z,3.50
2022-12-05T09:11:27.198Z,3.50
2022-12-05T09:13:56.044Z,3.50
2022-12-05T09:16:36.569Z,3.60
2022-12-05T09:19:04.937Z,3.60
2022-12-05T09:21:31.997Z,3.60
2022-12-05T09:24:00.535Z,3.50
2022-12-05T09:26:29.760Z,3.50
2022-12-05T09:28:58.694Z,3.50
2022-12-05T09:31:30.515Z,3.60
2022-12-05T09:33:57.594Z,3.60
2022-12-05T09:36:30.181Z,3.60
2022-12-05T09:39:02.265Z,3.60
2022-12-05T09:42:05.101Z,3.60
2022-12-05T09:44:37.650Z,3.60
2022-12-05T09:47:48.612Z,3.60
2022-12-05T09:50:18.252Z,3.60
2022-12-05T09:53:37.328Z,3.60
2022-12-05T09:56:23.120Z,3.60
2022-12-05T09:59:02.403Z,3.70
2022-12-05T10:01:46.045Z,3.70
2022-12-05T10:04:35.347Z,3.80
2022-12-05T10:07:19.786Z,3.80
2022-12-05T10:10:23.163Z,3.90
2022-12-05T10:13:13.868Z,3.90
2022-12-05T10:15:59.241Z,3.90
2022-12-05T10:18:42.888Z,3.90
2022-12-05T10:21:13.167Z,4.00
2022-12-05T10:23:57.493Z,4.00
2022-12-05T10:26:46.009Z,4.00
2022-12-05T10:29:31.760Z,4.00
2022-12-05T10:32:16.029Z,3.90
2022-12-05T10:34:45.535Z,3.90
2022-12-05T10:37:24.081Z,3.90
2022-12-05T10:39:52.336Z,4.00
2022-12-05T10:42:31.562Z,4.00
2022-12-05T10:45:05.097Z,4.00
2022-12-05T10:47:33.350Z,4.00
2022-12-05T10:50:17.452Z,4.10
2022-12-05T10:52:44.757Z,4.00
2022-12-05T10:55:17.140Z,4.10
2022-12-05T10:58:11.386Z,4.10
2022-12-05T11:00:47.419Z,4.10
2022-12-05T11:03:27.643Z,4.10
2022-12-05T11:06:14.208Z,4.10
2022-12-05T11:09:03.699Z,4.20
2022-12-05T11:11:33.276Z,4.10
2022-12-05T11:14:25.658Z,4.10
2022-12-05T11:16:57.174Z,4.00
2022-12-05T11:19:29.462Z,4.10
2022-12-05T11:21:56.666Z,4.10
2022-12-05T11:24:31.194Z,4.10
2022-12-05T11:27:18.522Z,4.20
2022-12-05T11:30:11.960Z,4.20
2022-12-05T11:32:39.352Z,4.20
2022-12-05T11:35:11.751Z,4.20
2022-12-05T11:37:55.562Z,4.20
2022-12-05T11:40:39.136Z,4.20
2022-12-05T11:43:23.919Z,4.20
2022-12-05T11:46:34.843Z,4.10
2022-12-05T11:49:49.815Z,4.20
2022-12-05T11:53:10.382Z,4.20
2022-12-05T11:56:08.336Z,4.20
2022-12-05T11:59:34.828Z,4.20
2022-12-05T12:02:49.032Z,4.10
2022-12-05T12:05:52.072Z,4.20
2022-12-05T12:08:32.614Z,4.20
2022-12-05T12:11:24.963Z,4.10
2022-12-05T12:14:22.160Z,4.10
2022-12-05T12:17:16.347Z,4.10
2022-12-05T12:20:03.701Z,4.10
2022-12-05T12:23:08.543Z,4.20
2022-12-05T12:26:11.245Z,4.10
2022-12-05T12:29:04.935Z,4.10
2022-12-05T12:31:55.480Z,4.10
2022-12-05T12:35:29.156Z,4.10
2022-12-05T12:38:17.138Z,4.00
2022-12-05T12:40:54.756Z,4.00
2022-12-05T12:44:05.543Z,4.00
2022-12-05T12:47:01.127Z,4.00
2022-12-05T12:49:57.001Z,4.00
2022-12-05T12:52:32.309Z,4.00
2022-12-05T12:55:40.297Z,4.00
2022-12-05T12:58:34.258Z,4.00
2022-12-05T13:01:27.643Z,4.00
2022-12-05T13:04:04.211Z,4.10
2022-12-05T13:06:51.231Z,4.10
2022-12-05T13:09:50.202Z,4.10
2022-12-05T13:12:28.624Z,4.10
2022-12-05T13:15:10.726Z,4.20
2022-12-05T13:17:42.821Z,4.20
2022-12-05T13:20:22.899Z,4.20
2022-12-05T13:22:52.144Z,4.30
2022-12-05T13:25:24.471Z,4.30
2022-12-05T13:27:58.655Z,4.30
2022-12-05T13:30:28.101Z,4.30
2022-12-05T13:33:03.488Z,4.40
2022-12-05T13:35:57.569Z,4.50
2022-12-05T13:38:54.884Z,4.60
2022-12-05T13:41:40.403Z,5.10
2022-12-05T13:44:12.116Z,4.60
2022-12-05T13:46:43.511Z,4.50
2022-12-05T13:49:33.109Z,4.50
2022-12-05T13:52:32.613Z,4.50
2022-12-05T13:55:19.042Z,4.40
2022-12-05T13:57:50.898Z,4.50
2022-12-05T14:00:17.524Z,4.50
2022-12-05T14:02:47.013Z,4.50
2022-12-05T14:05:19.440Z,4.40
2022-12-05T14:07:49.853Z,4.40
2022-12-05T14:10:39.751Z,4.40
2022-12-05T14:13:15.821Z,4.40
2022-12-05T14:15:45.786Z,4.40
2022-12-05T14:18:41.818Z,4.40
2022-12-05T14:21:15.742Z,4.40
2022-12-05T14:23:58.437Z,4.40
2022-12-05T14:26:52.172Z,4.40
2022-12-05T14:29:45.755Z,4.30
2022-12-05T14:32:36.259Z,4.90
2022-12-05T14:35:17.347Z,4.30
2022-12-05T14:37:55.584Z,4.30
2022-12-05T14:40:39.824Z,4.30
2022-12-05T14:43:38.561Z,4.30
2022-12-05T14:46:27.169Z,4.30
2022-12-05T14:48:55.956Z,4.30
2022-12-05T14:51:31.539Z,4.30
2022-12-05T14:54:12.104Z,4.30
2022-12-05T14:56:46.365Z,4.30
2022-12-05T14:59:44.024Z,4.30
2022-12-05T15:02:22.724Z,4.30
2022-12-05T15:05:22.487Z,4.30
2022-12-05T15:07:51.717Z,4.30
2022-12-05T15:10:28.827Z,4.30
2022-12-05T15:13:21.863Z,4.30
2022-12-05T15:16:19.454Z,4.30
2022-12-05T15:18:51.540Z,4.30
2022-12-05T15:21:33.605Z,4.20
2022-12-05T15:24:02.921Z,4.20
2022-12-05T15:27:04.680Z,4.20
2022-12-05T15:29:32.998Z,4.20
2022-12-05T15:32:12.882Z,4.20
2022-12-05T15:35:04.809Z,4.20
2022-12-05T15:37:47.852Z,4.30
2022-12-05T15:40:21.897Z,4.30
2022-12-05T15:42:52.175Z,4.30
2022-12-05T15:45:30.431Z,4.30
2022-12-05T15:47:59.830Z,4.30
2022-12-05T15:50:41.067Z,4.30
2022-12-05T15:53:29.013Z,4.30
2022-12-05T15:56:08.892Z,4.30
2022-12-05T15:58:51.631Z,4.30
2022-12-05T16:01:24.689Z,4.30
2022-12-05T16:04:09.267Z,4.20
2022-12-05T16:06:51.237Z,4.20
2022-12-05T16:09:25.322Z,4.20
2022-12-05T16:12:00.177Z,4.20
2022-12-05T16:14:58.822Z,4.20
2022-12-05T16:17:21.859Z,4.20
2022-12-05T16:19:48.805Z,4.20
2022-12-05T16:22:33.755Z,4.20
2022-12-05T16:25:04.641Z,4.20
2022-12-05T16:27:39.291Z,4.20
2022-12-05T16:30:11.715Z,4.20
2022-12-05T16:32:40.420Z,4.20
2022-12-05T16:35:29.040Z,4.20
2022-12-05T16:38:16.765Z,4.10
2022-12-05T16:40:46.152Z,4.10
2022-12-05T16:43:33.196Z,4.10
2022-12-05T16:46:11.446Z,4.10
2022-12-05T16:48:39.761Z,4.10
2022-12-05T16:51:25.789Z,4.10
2022-12-05T16:53:55.638Z,4.20
2022-12-05T16:56:31.662Z,4.20
2022-12-05T16:59:03.153Z,4.20
2022-12-05T17:01:33.168Z,4.20
2022-12-05T17:04:02.508Z,4.10
2022-12-05T17:06:29.324Z,4.10
2022-12-05T17:08:56.017Z,4.10
2022-12-05T17:11:33.997Z,4.10
2022-12-05T17:14:01.420Z,4.10
2022-12-05T17:16:28.170Z,4.10
2022-12-05T17:18:54.988Z,4.00
2022-12-05T17:21:26.928Z,4.00
2022-12-05T17:23:53.689Z,4.00
2022-12-05T17:26:22.334Z,4.00
2022-12-05T17:28:50.038Z,4.00
2022-12-05T17:31:20.965Z,4.00
2022-12-05T17:33:49.551Z,4.00
2022-12-05T17:36:17.181Z,4.00
2022-12-05T17:38:44.169Z,4.00
2022-12-05T17:41:18.022Z,4.00
2022-12-05T17:43:45.949Z,4.00
2022-12-05T17:46:19.282Z,4.00
2022-12-05T17:48:47.568Z,4.00
2022-12-05T17:51:14.683Z,4.00
2022-12-05T17:53:44.357Z,3.90
2022-12-05T17:56:11.800Z,3.90
2022-12-05T17:58:38.563Z,3.90
2022-12-05T18:01:05.646Z,4.00
2022-12-05T18:03:32.901Z,4.00
2022-12-05T18:06:03.637Z,4.00
2022-12-05T18:08:30.442Z,4.00
2022-12-05T18:10:58.171Z,4.00
2022-12-05T18:13:24.865Z,4.00
2022-12-05T18:15:57.937Z,4.00
2022-12-05T18:18:27.406Z,4.00
2022-12-05T18:20:54.214Z,4.00
2022-12-05T18:23:21.008Z,3.90
2022-12-05T18:26:00.273Z,3.90
2022-12-05T18:28:27.757Z,3.90
2022-12-05T18:31:16.895Z,3.90
2022-12-05T18:33:45.048Z,3.90
2022-12-05T18:36:19.704Z,3.90
2022-12-05T18:38:53.337Z,3.90
2022-12-05T18:41:23.303Z,3.80
2022-12-05T18:43:50.575Z,3.80
2022-12-05T18:46:17.431Z,3.80
2022-12-05T18:48:47.433Z,3.80
2022-12-05T18:51:22.103Z,3.80
2022-12-05T18:53:53.344Z,3.80
2022-12-05T18:56:31.124Z,3.90
2022-12-05T18:59:02.320Z,3.80
2022-12-05T19:01:31.857Z,3.90
2022-12-05T19:04:00.872Z,3.80
2022-12-05T19:06:31.296Z,3.90
2022-12-05T19:09:02.451Z,3.80
2022-12-05T19:11:29.913Z,3.80
2022-12-05T19:13:59.734Z,3.80
2022-12-05T19:16:28.673Z,3.80
2022-12-05T19:18:58.392Z,3.80
2022-12-05T19:21:28.304Z,3.70
2022-12-05T19:23:55.843Z,3.80
2022-12-05T19:26:23.750Z,3.80
2022-12-05T19:28:50.864Z,3.80
2022-12-05T19:31:21.572Z,3.80
2022-12-05T19:33:51.790Z,3.80
2022-12-05T19:36:28.806Z,3.80
2022-12-05T19:38:56.479Z,3.80
2022-12-05T19:41:29.807Z,3.80
2022-12-05T19:44:01.595Z,3.80
2022-12-05T19:46:30.577Z,3.80
2022-12-05T19:49:00.919Z,3.80
2022-12-05T19:51:27.981Z,3.80
2022-12-05T19:53:54.916Z,3.80
2022-12-05T19:56:27.338Z,3.80
2022-12-05T19:58:57.332Z,3.70
2022-12-05T20:01:29.263Z,3.70
2022-12-05T20:04:17.481Z,3.70
2022-12-05T20:06:49.283Z,3.70
2022-12-05T20:09:19.422Z,3.70
2022-12-05T20:11:54.217Z,3.70
2022-12-05T20:14:24.136Z,4.10
2022-12-05T20:16:51.359Z,3.60
2022-12-05T20:19:18.154Z,3.70
2022-12-05T20:21:45.024Z,3.70
2022-12-05T20:24:12.280Z,3.70
2022-12-05T20:26:43.459Z,3.70
2022-12-05T20:29:10.390Z,3.70
2022-12-05T20:31:40.701Z,3.70
2022-12-05T20:34:11.409Z,3.70
2022-12-05T20:36:38.190Z,3.60
2022-12-05T20:39:16.105Z,3.60
2022-12-05T20:41:43.970Z,3.60
2022-12-05T20:44:14.761Z,3.50
2022-12-05T20:46:41.895Z,3.50
2022-12-05T20:49:09.061Z,3.50
2022-12-05T20:51:35.841Z,3.60
2022-12-05T20:54:03.659Z,3.60
2022-12-05T20:56:32.737Z,3.60
2022-12-05T20:59:03.521Z,3.60
2022-12-05T21:01:33.727Z,3.60
2022-12-05T21:04:01.794Z,3.60
2022-12-05T21:06:36.116Z,3.50
2022-12-05T21:09:06.981Z,3.60
2022-12-05T21:11:33.758Z,3.60
2022-12-05T21:14:00.660Z,3.60
2022-12-05T21:16:28.210Z,3.50
2022-12-05T21:18:56.104Z,3.50
2022-12-05T21:21:26.075Z,3.50
2022-12-05T21:24:02.303Z,3.50
2022-12-05T21:26:34.097Z,3.50
2022-12-05T21:29:02.225Z,3.40
2022-12-05T21:31:42.195Z,3.40
2022-12-05T21:34:16.327Z,3.40
2022-12-05T21:36:43.905Z,3.40
2022-12-05T21:39:11.951Z,3.40
2022-12-05T21:41:39.083Z,3.40
2022-12-05T21:44:06.414Z,3.40
2022-12-05T21:46:33.384Z,3.40
2022-12-05T21:49:00.491Z,3.40
2022-12-05T21:51:27.240Z,3.40
2022-12-05T21:53:54.007Z,3.40
2022-12-05T21:56:23.332Z,3.40
2022-12-05T21:58:51.222Z,3.40
2022-12-05T22:01:25.549Z,3.40
2022-12-05T22:04:01.208Z,3.40
2022-12-05T22:06:33.303Z,3.30
2022-12-05T22:09:00.537Z,3.30
2022-12-05T22:11:27.310Z,3.20
2022-12-05T22:13:54.151Z,3.20
2022-12-05T22:16:21.635Z,3.20
2022-12-05T22:18:48.627Z,3.10
2022-12-05T22:21:18.783Z,3.10
2022-12-05T22:23:46.510Z,3.10
2022-12-05T22:26:20.346Z,3.10
2022-12-05T22:28:52.528Z,3.10
2022-12-05T22:31:20.944Z,3.10
2022-12-05T22:33:48.537Z,3.10
2022-12-05T22:36:18.064Z,3.10
2022-12-05T22:38:47.579Z,3.10
2022-12-05T22:41:18.547Z,3.10
2022-12-05T22:43:47.576Z,3.00
2022-12-05T22:46:18.775Z,3.00
2022-12-05T22:48:48.351Z,3.00
2022-12-05T22:51:17.243Z,3.00
2022-12-05T22:53:44.737Z,2.90
2022-12-05T22:56:17.197Z,2.90
2022-12-05T22:58:46.150Z,2.80
2022-12-05T23:01:23.265Z,2.70
2022-12-05T23:03:55.011Z,2.70
2022-12-05T23:06:21.868Z,2.60
2022-12-05T23:08:49.436Z,2.60
2022-12-05T23:11:19.446Z,2.60
2022-12-05T23:13:48.033Z,2.50
2022-12-05T23:16:22.020Z,2.50
2022-12-05T23:18:50.924Z,2.50
2022-12-05T23:21:27.740Z,2.50
2022-12-05T23:23:57.447Z,2.50
2022-12-05T23:26:28.805Z,2.50
2022-12-05T23:28:55.992Z,2.50
2022-12-05T23:31:23.441Z,2.50
2022-12-05T23:33:51.640Z,2.50
2022-12-05T23:36:19.745Z,2.40
2022-12-05T23:38:48.403Z,2.40
2022-12-05T23:41:20.296Z,2.30
2022-12-05T23:43:49.198Z,2.30
2022-12-05T23:46:19.309Z,2.20
2022-12-05T23:48:46.575Z,2.20
2022-12-05T23:51:21.208Z,2.20
2022-12-05T23:53:56.073Z,2.10
2022-12-05T23:56:27.348Z,2.00
2022-12-05T23:58:55.677Z,2.00
